createdAt,value
2023-01-18T00:01:36.576Z,13.97
2023-01-18T00:04:05.800Z,9.87
2023-01-18T00:06:35.039Z,13.60
2023-01-18T00:09:04.215Z,15.67
2023-01-18T00:11:33.260Z,10.17
2023-01-18T00:14:03.009Z,8.03
2023-01-18T00:16:32.158Z,11.43
2023-01-18T00:19:02.952Z,9.70
2023-01-18T00:21:32.001Z,12.30
2023-01-18T00:24:01.019Z,10.77
2023-01-18T00:26:30.077Z,13.27
2023-01-18T00:28:59.087Z,12.53
2023-01-18T00:31:28.252Z,8.60
2023-01-18T00:33:57.299Z,12.07
2023-01-18T00:36:27.794Z,13.10
2023-01-18T00:38:56.837Z,17.43
2023-01-18T00:41:26.000Z,7.10
2023-01-18T00:43:54.604Z,13.93
2023-01-18T00:46:25.557Z,9.90
2023-01-18T00:48:55.755Z,13.27
2023-01-18T00:51:27.267Z,8.67
2023-01-18T00:53:56.323Z,14.07
2023-01-18T00:56:25.356Z,14.83
2023-01-18T00:58:54.426Z,13.70
2023-01-18T01:01:23.523Z,17.43
2023-01-18T01:04:09.910Z,11.60
2023-01-18T01:06:46.620Z,18.20
2023-01-18T01:09:18.603Z,10.53
2023-01-18T01:12:05.991Z,16.40
2023-01-18T01:14:55.319Z,16.50
2023-01-18T01:17:41.995Z,15.50
2023-01-18T01:20:29.539Z,18.33
2023-01-18T01:23:26.436Z,11.00
2023-01-18T01:26:04.697Z,10.33
2023-01-18T01:28:33.740Z,10.13
2023-01-18T01:31:04.075Z,10.90
2023-01-18T01:33:34.031Z,17.80
2023-01-18T01:36:05.320Z,14.53
2023-01-18T01:38:35.879Z,19.00
2023-01-18T01:41:07.101Z,17.10
2023-01-18T01:43:41.937Z,15.37
2023-01-18T01:46:24.558Z,18.40
2023-01-18T01:48:59.954Z,14.23
2023-01-18T01:51:29.139Z,15.07
2023-01-18T01:54:03.660Z,21.83
2023-01-18T01:56:33.174Z,15.67
2023-01-18T01:59:03.840Z,14.20
2023-01-18T02:01:33.365Z,19.17
2023-01-18T02:04:03.979Z,20.13
2023-01-18T02:06:37.037Z,11.03
2023-01-18T02:09:09.889Z,15.73
2023-01-18T02:11:40.256Z,13.27
2023-01-18T02:14:13.680Z,14.63
2023-01-18T02:16:57.369Z,13.97
2023-01-18T02:20:19.570Z,14.30
2023-01-18T02:23:23.577Z,10.43
2023-01-18T02:26:18.530Z,16.77
2023-01-18T02:28:58.114Z,16.53
2023-01-18T02:31:30.798Z,16.13
2023-01-18T02:34:07.181Z,15.43
2023-01-18T02:36:45.647Z,12.80
2023-01-18T02:39:31.456Z,15.27
2023-01-18T02:42:25.318Z,12.87
2023-01-18T02:45:13.603Z,14.07
2023-01-18T02:47:45.080Z,13.90
2023-01-18T02:50:23.360Z,16.90
2023-01-18T02:52:53.543Z,16.00
2023-01-18T02:55:37.559Z,17.23
2023-01-18T02:58:12.483Z,13.67
2023-01-18T03:00:49.927Z,18.07
2023-01-18T03:03:21.379Z,18.57
2023-01-18T03:05:54.233Z,14.03
2023-01-18T03:08:28.316Z,16.13
2023-01-18T03:11:01.602Z,13.43
2023-01-18T03:13:47.599Z,11.40
2023-01-18T03:16:24.163Z,12.70
2023-01-18T03:19:01.638Z,19.83
2023-01-18T03:21:42.851Z,19.77
2023-01-18T03:24:12.034Z,20.83
2023-01-18T03:26:44.451Z,19.33
2023-01-18T03:29:33.562Z,22.10
2023-01-18T03:32:26.299Z,15.77
2023-01-18T03:35:00.731Z,12.67
2023-01-18T03:37:33.712Z,15.33
2023-01-18T03:40:05.915Z,22.03
2023-01-18T03:42:41.018Z,17.40
2023-01-18T03:45:17.001Z,23.73
2023-01-18T03:47:50.329Z,16.60
2023-01-18T03:50:21.157Z,18.37
2023-01-18T03:52:56.868Z,17.50
2023-01-18T03:55:35.726Z,15.10
2023-01-18T03:58:10.411Z,21.93
2023-01-18T04:00:40.635Z,13.47
2023-01-18T04:03:16.688Z,10.50
2023-01-18T04:05:45.827Z,13.27
2023-01-18T04:08:16.366Z,15.13
2023-01-18T04:10:45.403Z,16.43
2023-01-18T04:13:14.590Z,18.53
2023-01-18T04:15:43.673Z,14.63
2023-01-18T04:18:14.115Z,12.63
2023-01-18T04:20:43.187Z,17.30
2023-01-18T04:23:12.892Z,16.40
2023-01-18T04:25:45.788Z,11.87
2023-01-18T04:28:14.835Z,17.53
2023-01-18T04:30:43.960Z,16.23
2023-01-18T04:33:14.349Z,17.50
2023-01-18T04:35:43.710Z,14.53
2023-01-18T04:38:12.766Z,17.87
2023-01-18T04:40:42.103Z,23.00
2023-01-18T04:43:11.120Z,11.60
2023-01-18T04:45:40.195Z,16.67
2023-01-18T04:48:09.483Z,15.03
2023-01-18T04:50:45.507Z,27.40
2023-01-18T04:53:14.619Z,12.77
2023-01-18T04:55:43.746Z,14.27
2023-01-18T04:58:12.877Z,18.07
2023-01-18T05:00:41.942Z,12.70
2023-01-18T05:03:12.589Z,17.40
2023-01-18T05:05:42.942Z,10.37
2023-01-18T05:08:12.007Z,18.80
2023-01-18T05:10:41.021Z,15.87
2023-01-18T05:13:10.134Z,18.10
2023-01-18T05:15:39.993Z,13.53
2023-01-18T05:18:08.972Z,10.93
2023-01-18T05:20:38.013Z,12.70
2023-01-18T05:23:10.960Z,16.27
2023-01-18T05:25:40.205Z,14.10
2023-01-18T05:28:10.077Z,19.07
2023-01-18T05:30:42.159Z,14.67
2023-01-18T05:33:11.258Z,13.70
2023-01-18T05:35:40.292Z,15.13
2023-01-18T05:38:10.637Z,15.90
2023-01-18T05:40:39.639Z,12.07
2023-01-18T05:43:08.709Z,23.50
2023-01-18T05:45:37.736Z,16.33
2023-01-18T05:48:07.166Z,15.67
2023-01-18T05:50:36.415Z,15.77
2023-01-18T05:53:19.936Z,13.47
2023-01-18T05:55:56.180Z,19.63
2023-01-18T05:58:25.941Z,12.80
2023-01-18T06:00:55.269Z,14.63
2023-01-18T06:03:25.089Z,18.60
2023-01-18T06:05:54.146Z,13.73
2023-01-18T06:08:24.559Z,15.10
2023-01-18T06:10:57.671Z,22.90
2023-01-18T06:13:29.148Z,19.57
2023-01-18T06:15:58.968Z,18.57
2023-01-18T06:18:30.909Z,15.97
2023-01-18T06:21:01.752Z,26.23
2023-01-18T06:23:33.075Z,20.83
2023-01-18T06:26:02.531Z,23.67
2023-01-18T06:28:31.775Z,14.30
2023-01-18T06:31:04.745Z,21.57
2023-01-18T06:33:34.118Z,16.10
2023-01-18T06:36:03.467Z,11.83
2023-01-18T06:38:34.502Z,18.87
2023-01-18T06:41:03.990Z,16.27
2023-01-18T06:43:33.334Z,19.20
2023-01-18T06:46:02.835Z,26.00
2023-01-18T06:48:31.935Z,21.67
2023-01-18T06:51:00.979Z,18.60
2023-01-18T06:53:30.503Z,19.33
2023-01-18T06:56:02.651Z,19.07
2023-01-18T06:58:34.479Z,13.33
2023-01-18T07:01:04.403Z,14.47
2023-01-18T07:03:33.910Z,18.83
2023-01-18T07:06:06.299Z,19.77
2023-01-18T07:08:35.824Z,14.40
2023-01-18T07:11:11.290Z,22.17
2023-01-18T07:13:41.005Z,14.57
2023-01-18T07:16:17.895Z,25.63
2023-01-18T07:18:48.216Z,25.43
2023-01-18T07:21:19.200Z,20.20
2023-01-18T07:23:48.279Z,16.13
2023-01-18T07:26:19.018Z,22.00
2023-01-18T07:28:49.349Z,16.97
2023-01-18T07:31:20.125Z,18.27
2023-01-18T07:33:49.354Z,23.10
2023-01-18T07:36:18.407Z,19.23
2023-01-18T07:38:49.095Z,21.63
2023-01-18T07:41:19.623Z,19.07
2023-01-18T07:43:48.671Z,19.97
2023-01-18T07:46:20.004Z,15.63
2023-01-18T07:48:49.433Z,18.43
2023-01-18T07:51:18.578Z,19.07
2023-01-18T07:53:47.862Z,19.50
2023-01-18T07:56:19.588Z,27.40
2023-01-18T07:58:48.930Z,22.37
2023-01-18T08:01:20.274Z,19.77
2023-01-18T08:03:50.911Z,24.53
2023-01-18T08:06:24.663Z,18.67
2023-01-18T08:08:55.497Z,19.03
2023-01-18T08:11:25.929Z,20.33
2023-01-18T08:13:54.919Z,19.47
2023-01-18T08:16:24.359Z,24.47
2023-01-18T08:18:53.415Z,23.77
2023-01-18T08:21:22.512Z,21.40
2023-01-18T08:23:54.607Z,20.47
2023-01-18T08:26:25.710Z,19.00
2023-01-18T08:28:56.217Z,19.27
2023-01-18T08:31:25.320Z,19.03
2023-01-18T08:33:54.664Z,31.20
2023-01-18T08:36:26.371Z,23.13
2023-01-18T08:38:57.789Z,21.07
2023-01-18T08:41:30.435Z,20.00
2023-01-18T08:44:00.547Z,32.13
2023-01-18T08:46:29.958Z,23.17
2023-01-18T08:48:59.923Z,30.13
2023-01-18T08:51:29.008Z,26.37
2023-01-18T08:53:59.095Z,32.33
2023-01-18T08:56:30.220Z,25.70
2023-01-18T08:59:00.015Z,36.57
2023-01-18T09:01:29.542Z,29.50
2023-01-18T09:03:59.355Z,32.00
2023-01-18T09:06:31.969Z,29.53
2023-01-18T09:09:01.782Z,43.03
2023-01-18T09:11:32.393Z,34.53
2023-01-18T09:14:02.221Z,28.03
2023-01-18T09:16:32.127Z,40.07
2023-01-18T09:19:01.395Z,25.47
2023-01-18T09:21:30.505Z,29.30
2023-01-18T09:23:59.701Z,26.90
2023-01-18T09:26:30.797Z,37.83
2023-01-18T09:28:59.969Z,32.27
2023-01-18T09:31:30.672Z,31.10
2023-01-18T09:34:18.096Z,28.80
2023-01-18T09:36:50.692Z,22.40
2023-01-18T09:39:20.005Z,31.73
2023-01-18T09:41:54.762Z,27.17
2023-01-18T09:44:29.735Z,25.80
2023-01-18T09:47:02.918Z,24.47
2023-01-18T09:49:38.314Z,28.60
2023-01-18T09:52:24.724Z,23.77
2023-01-18T09:55:02.031Z,26.17
2023-01-18T09:57:45.870Z,28.17
2023-01-18T10:00:22.702Z,30.63
2023-01-18T10:02:55.357Z,28.93
2023-01-18T10:05:27.890Z,26.93
2023-01-18T10:08:04.601Z,25.10
2023-01-18T10:10:38.447Z,25.17
2023-01-18T10:13:29.123Z,22.50
2023-01-18T10:15:58.317Z,23.97
2023-01-18T10:18:27.508Z,23.43
2023-01-18T10:21:01.957Z,21.57
2023-01-18T10:23:35.721Z,19.37
2023-01-18T10:26:08.471Z,28.43
2023-01-18T10:28:51.931Z,23.23
2023-01-18T10:31:32.856Z,20.60
2023-01-18T10:34:04.387Z,19.43
2023-01-18T10:36:39.575Z,23.13
2023-01-18T10:39:23.441Z,23.90
2023-01-18T10:41:53.611Z,20.43
2023-01-18T10:44:24.682Z,23.53
2023-01-18T10:46:58.183Z,28.37
2023-01-18T10:49:41.486Z,21.83
2023-01-18T10:52:22.779Z,23.80
2023-01-18T10:54:55.790Z,24.13
2023-01-18T10:57:31.010Z,25.10
2023-01-18T11:00:01.878Z,21.57
2023-01-18T11:02:36.026Z,21.50
2023-01-18T11:05:22.014Z,22.77
2023-01-18T11:08:12.533Z,21.10
2023-01-18T11:10:42.810Z,19.97
2023-01-18T11:13:27.486Z,21.67
2023-01-18T11:16:22.761Z,23.53
2023-01-18T11:19:00.916Z,16.37
2023-01-18T11:21:40.826Z,21.97
2023-01-18T11:24:15.693Z,21.07
2023-01-18T11:26:57.309Z,19.37
2023-01-18T11:29:29.782Z,21.40
2023-01-18T11:32:05.088Z,17.07
2023-01-18T11:34:36.979Z,21.23
2023-01-18T11:37:31.314Z,21.37
2023-01-18T11:40:27.910Z,16.33
2023-01-18T11:43:03.520Z,20.17
2023-01-18T11:45:40.284Z,14.27
2023-01-18T11:48:19.273Z,18.90
2023-01-18T11:50:53.558Z,16.27
2023-01-18T11:53:35.840Z,16.50
2023-01-18T11:56:10.457Z,14.77
2023-01-18T11:58:41.350Z,21.47
2023-01-18T12:01:26.715Z,15.33
2023-01-18T12:04:02.985Z,14.60
2023-01-18T12:06:45.528Z,17.23
2023-01-18T12:09:30.709Z,14.40
2023-01-18T12:12:19.844Z,14.30
2023-01-18T12:15:01.585Z,13.10
2023-01-18T12:17:58.632Z,9.83
2023-01-18T12:20:49.406Z,12.13
2023-01-18T12:23:55.763Z,13.00
2023-01-18T12:26:42.715Z,16.23
2023-01-18T12:29:37.010Z,15.73
2023-01-18T12:32:20.652Z,12.57
2023-01-18T12:35:06.311Z,15.13
2023-01-18T12:37:46.947Z,12.67
2023-01-18T12:40:37.718Z,16.53
2023-01-18T12:43:20.955Z,16.10
2023-01-18T12:45:57.863Z,12.57
2023-01-18T12:48:31.429Z,15.90
2023-01-18T12:51:01.415Z,13.53
2023-01-18T12:53:40.166Z,10.00
2023-01-18T12:56:14.710Z,13.87
2023-01-18T12:58:44.372Z,8.47
2023-01-18T13:01:19.107Z,10.57
2023-01-18T13:03:51.459Z,9.00
2023-01-18T13:06:22.720Z,8.13
2023-01-18T13:08:58.148Z,8.40
2023-01-18T13:11:33.242Z,7.57
2023-01-18T13:14:10.314Z,7.97
2023-01-18T13:16:45.201Z,9.23
2023-01-18T13:19:20.342Z,9.40
2023-01-18T13:22:00.141Z,10.10
2023-01-18T13:24:46.797Z,11.43
2023-01-18T13:27:18.319Z,9.00
2023-01-18T13:29:48.087Z,7.97
2023-01-18T13:32:38.775Z,9.97
2023-01-18T13:35:24.994Z,10.70
2023-01-18T13:37:57.945Z,6.63
2023-01-18T13:40:38.809Z,7.23
2023-01-18T13:43:31.449Z,8.77
2023-01-18T13:46:03.319Z,15.07
2023-01-18T13:48:46.650Z,6.13
2023-01-18T13:51:51.955Z,7.43
2023-01-18T13:55:01.039Z,10.50
2023-01-18T13:57:33.667Z,6.80
2023-01-18T14:00:03.522Z,5.50
2023-01-18T14:02:42.092Z,9.30
2023-01-18T14:05:25.359Z,8.43
2023-01-18T14:07:58.339Z,10.47
2023-01-18T14:10:33.182Z,10.13
2023-01-18T14:13:05.605Z,9.00
2023-01-18T14:15:51.909Z,7.17
2023-01-18T14:18:25.168Z,10.17
2023-01-18T14:21:06.111Z,8.20
2023-01-18T14:23:55.138Z,9.17
2023-01-18T14:26:29.144Z,11.20
2023-01-18T14:29:02.693Z,7.70
2023-01-18T14:31:35.537Z,8.43
2023-01-18T14:34:26.070Z,13.57
2023-01-18T14:36:55.669Z,7.73
2023-01-18T14:39:25.244Z,12.77
2023-01-18T14:41:58.136Z,6.60
2023-01-18T14:44:48.663Z,8.20
2023-01-18T14:47:29.480Z,8.30
2023-01-18T14:49:59.002Z,9.00
2023-01-18T14:52:33.015Z,14.23
2023-01-18T14:55:02.393Z,8.23
2023-01-18T14:57:31.650Z,9.13
2023-01-18T15:00:16.860Z,7.90
2023-01-18T15:02:46.194Z,9.00
2023-01-18T15:05:17.852Z,7.63
2023-01-18T15:07:49.133Z,10.30
2023-01-18T15:10:21.068Z,10.27
2023-01-18T15:12:55.290Z,9.83
2023-01-18T15:15:30.422Z,9.67
2023-01-18T15:18:05.829Z,11.20
2023-01-18T15:20:35.007Z,8.10
2023-01-18T15:23:05.230Z,16.27
2023-01-18T15:25:34.719Z,7.77
2023-01-18T15:28:22.440Z,9.53
2023-01-18T15:30:55.137Z,11.53
2023-01-18T15:33:26.187Z,6.50
2023-01-18T15:35:58.930Z,13.13
2023-01-18T15:38:28.144Z,9.37
2023-01-18T15:41:02.567Z,8.43
2023-01-18T15:43:38.457Z,7.27
2023-01-18T15:46:12.070Z,9.17
2023-01-18T15:48:51.473Z,7.83
2023-01-18T15:51:22.886Z,7.17
2023-01-18T15:53:56.343Z,10.13
2023-01-18T15:56:29.702Z,9.63
2023-01-18T15:59:01.596Z,11.37
2023-01-18T16:01:34.920Z,14.10
2023-01-18T16:04:19.834Z,12.20
2023-01-18T16:06:49.104Z,8.37
2023-01-18T16:09:23.009Z,7.03
2023-01-18T16:11:54.366Z,10.03
2023-01-18T16:14:33.177Z,16.43
2023-01-18T16:17:09.494Z,12.27
2023-01-18T16:19:43.400Z,10.23
2023-01-18T16:22:20.806Z,8.50
2023-01-18T16:24:53.402Z,14.83
2023-01-18T16:27:24.160Z,11.80
2023-01-18T16:29:55.677Z,18.80
2023-01-18T16:32:35.341Z,15.63
2023-01-18T16:35:13.942Z,19.93
2023-01-18T16:37:44.407Z,14.17
2023-01-18T16:40:15.771Z,14.77
2023-01-18T16:42:59.694Z,12.27
2023-01-18T16:45:30.170Z,13.80
2023-01-18T16:48:01.076Z,14.63
2023-01-18T16:50:30.441Z,15.87
2023-01-18T16:52:59.479Z,12.37
2023-01-18T16:55:28.699Z,14.63
2023-01-18T16:57:59.298Z,12.80
2023-01-18T17:00:35.569Z,12.60
2023-01-18T17:03:06.145Z,11.10
2023-01-18T17:05:35.312Z,13.17
2023-01-18T17:08:04.860Z,16.30
2023-01-18T17:10:38.483Z,12.47
2023-01-18T17:13:08.005Z,20.03
2023-01-18T17:15:40.727Z,15.70
2023-01-18T17:18:15.047Z,15.13
2023-01-18T17:20:45.007Z,12.23
2023-01-18T17:23:14.178Z,13.77
2023-01-18T17:25:43.547Z,15.13
2023-01-18T17:28:14.218Z,9.87
2023-01-18T17:30:44.980Z,15.00
2023-01-18T17:33:18.739Z,13.33
2023-01-18T17:35:48.411Z,20.03
2023-01-18T17:38:24.317Z,12.77
2023-01-18T17:40:57.173Z,11.73
2023-01-18T17:43:33.824Z,12.50
2023-01-18T17:46:07.628Z,8.47
2023-01-18T17:48:38.665Z,11.97
2023-01-18T17:51:08.565Z,12.07
2023-01-18T17:53:37.844Z,12.67
2023-01-18T17:56:11.259Z,10.43
2023-01-18T17:58:40.572Z,9.20
2023-01-18T18:01:11.421Z,16.23
2023-01-18T18:03:43.118Z,16.73
2023-01-18T18:06:14.446Z,11.90
2023-01-18T18:08:44.816Z,15.70
2023-01-18T18:11:15.524Z,14.77
2023-01-18T18:13:44.837Z,16.47
2023-01-18T18:16:18.773Z,17.60
2023-01-18T18:18:49.804Z,16.63
2023-01-18T18:21:18.879Z,15.87
2023-01-18T18:23:47.924Z,16.77
2023-01-18T18:26:17.059Z,17.37
2023-01-18T18:28:46.100Z,14.83
2023-01-18T18:31:16.262Z,14.50
2023-01-18T18:33:45.851Z,20.20
2023-01-18T18:36:16.447Z,23.67
2023-01-18T18:38:45.530Z,16.57
2023-01-18T18:41:15.211Z,19.83
2023-01-18T18:43:44.344Z,22.30
2023-01-18T18:46:13.899Z,12.10
2023-01-18T18:48:42.949Z,16.07
2023-01-18T18:51:12.446Z,14.87
2023-01-18T18:53:43.050Z,16.93
2023-01-18T18:56:12.181Z,11.70
2023-01-18T18:58:41.862Z,15.47
2023-01-18T19:01:20.069Z,9.53
2023-01-18T19:03:50.797Z,16.63
2023-01-18T19:06:21.496Z,18.47
2023-01-18T19:08:53.023Z,14.37
2023-01-18T19:11:22.225Z,16.47
2023-01-18T19:13:51.396Z,8.93
2023-01-18T19:16:20.489Z,12.07
2023-01-18T19:18:49.634Z,13.83
2023-01-18T19:21:20.166Z,15.60
2023-01-18T19:23:49.323Z,12.57
2023-01-18T19:26:19.889Z,17.77
2023-01-18T19:28:48.932Z,19.70
2023-01-18T19:31:18.138Z,13.77
2023-01-18T19:33:47.177Z,16.07
2023-01-18T19:36:17.289Z,20.00
2023-01-18T19:38:52.548Z,18.20
2023-01-18T19:41:25.659Z,18.03
2023-01-18T19:43:54.720Z,18.70
2023-01-18T19:46:23.953Z,19.27
2023-01-18T19:48:58.229Z,18.47
2023-01-18T19:51:27.740Z,13.97
2023-01-18T19:53:57.875Z,19.03
2023-01-18T19:56:29.105Z,18.83
2023-01-18T19:58:58.791Z,19.07
2023-01-18T20:01:36.409Z,30.23
2023-01-18T20:04:07.546Z,19.03
2023-01-18T20:06:38.494Z,16.10
2023-01-18T20:09:18.364Z,24.13
2023-01-18T20:11:50.804Z,16.13
2023-01-18T20:14:20.112Z,19.83
2023-01-18T20:16:54.877Z,13.97
2023-01-18T20:19:23.929Z,15.90
2023-01-18T20:21:52.984Z,13.23
2023-01-18T20:24:22.386Z,16.67
2023-01-18T20:26:52.787Z,11.33
2023-01-18T20:29:21.829Z,20.00
2023-01-18T20:31:51.499Z,13.47
2023-01-18T20:34:21.645Z,10.70
2023-01-18T20:36:50.890Z,13.60
2023-01-18T20:39:20.572Z,18.90
2023-01-18T20:41:50.171Z,17.40
2023-01-18T20:44:20.781Z,18.37
2023-01-18T20:46:50.862Z,14.70
2023-01-18T20:49:33.162Z,17.53
2023-01-18T20:52:07.710Z,22.70
2023-01-18T20:54:37.660Z,18.77
2023-01-18T20:57:07.694Z,14.73
2023-01-18T20:59:38.717Z,12.33
2023-01-18T21:02:10.727Z,16.40
2023-01-18T21:04:40.076Z,22.03
2023-01-18T21:07:09.152Z,15.60
2023-01-18T21:09:38.197Z,14.07
2023-01-18T21:12:07.500Z,17.83
2023-01-18T21:14:37.974Z,16.77
2023-01-18T21:17:07.032Z,19.73
2023-01-18T21:19:36.139Z,21.97
2023-01-18T21:22:05.421Z,18.67
2023-01-18T21:24:34.637Z,24.47
2023-01-18T21:27:04.028Z,17.30
2023-01-18T21:29:33.161Z,24.27
2023-01-18T21:32:03.935Z,14.03
2023-01-18T21:34:32.966Z,21.77
2023-01-18T21:37:02.670Z,21.37
2023-01-18T21:39:31.865Z,15.37
2023-01-18T21:42:18.440Z,16.00
2023-01-18T21:45:04.877Z,11.83
2023-01-18T21:47:35.247Z,16.80
2023-01-18T21:50:21.977Z,18.57
2023-01-18T21:53:08.616Z,18.30
2023-01-18T21:55:39.954Z,14.30
2023-01-18T21:58:26.740Z,8.90
2023-01-18T22:01:01.227Z,15.67
2023-01-18T22:03:31.682Z,13.50
2023-01-18T22:06:02.239Z,16.10
2023-01-18T22:08:31.228Z,21.43
2023-01-18T22:11:00.496Z,15.00
2023-01-18T22:13:29.570Z,16.63
2023-01-18T22:16:03.656Z,14.27
2023-01-18T22:18:34.145Z,20.50
2023-01-18T22:21:03.374Z,14.93
2023-01-18T22:23:33.716Z,15.10
2023-01-18T22:26:02.834Z,14.87
2023-01-18T22:28:31.922Z,14.20
2023-01-18T22:31:01.317Z,14.23
2023-01-18T22:33:30.690Z,14.50
2023-01-18T22:36:01.608Z,19.03
2023-01-18T22:38:30.608Z,18.10
2023-01-18T22:41:03.343Z,12.07
2023-01-18T22:43:32.514Z,13.87
2023-01-18T22:46:04.480Z,9.37
2023-01-18T22:48:36.474Z,14.60
2023-01-18T22:51:08.515Z,16.43
2023-01-18T22:53:38.397Z,15.57
2023-01-18T22:56:09.170Z,10.50
2023-01-18T22:58:38.343Z,8.27
2023-01-18T23:01:15.876Z,13.23
2023-01-18T23:03:46.005Z,19.93
2023-01-18T23:06:16.438Z,13.23
2023-01-18T23:08:47.147Z,12.63
2023-01-18T23:11:18.355Z,16.07
2023-01-18T23:14:09.967Z,13.80
2023-01-18T23:16:58.298Z,14.87
2023-01-18T23:19:30.437Z,17.90
2023-01-18T23:22:06.746Z,12.07
2023-01-18T23:24:36.690Z,15.37
2023-01-18T23:27:07.486Z,18.63
2023-01-18T23:29:38.995Z,16.07
2023-01-18T23:32:08.950Z,14.10
2023-01-18T23:34:39.138Z,14.60
2023-01-18T23:37:09.508Z,18.53
2023-01-18T23:39:56.172Z,18.97
2023-01-18T23:42:42.819Z,14.43
2023-01-18T23:45:29.819Z,12.33
2023-01-18T23:48:16.664Z,16.07
2023-01-18T23:51:03.324Z,11.67
2023-01-18T23:53:51.328Z,14.23
2023-01-18T23:56:20.376Z,18.60
2023-01-18T23:58:49.559Z,13.40
